createdAt,value
2023-12-12T00:01:29.766Z,1.50
2023-12-12T00:04:02.841Z,1.70
2023-12-12T00:06:34.812Z,1.85
2023-12-12T00:09:07.269Z,1.83
2023-12-12T00:11:39.183Z,2.10
2023-12-12T00:14:11.772Z,1.40
2023-12-12T00:16:44.011Z,1.60
2023-12-12T00:19:16.059Z,1.70
2023-12-12T00:21:49.800Z,1.88
2023-12-12T00:24:21.786Z,1.70
2023-12-12T00:26:54.805Z,1.52
2023-12-12T00:29:26.790Z,1.85
2023-12-12T00:31:59.268Z,1.90
2023-12-12T00:34:31.537Z,1.90
2023-12-12T00:37:04.524Z,1.50
2023-12-12T00:39:42.901Z,1.80
2023-12-12T00:42:14.894Z,1.50
2023-12-12T00:44:47.729Z,1.70
2023-12-12T00:47:19.663Z,1.88
2023-12-12T00:49:52.752Z,1.50
2023-12-12T00:52:25.236Z,1.55
2023-12-12T00:55:00.773Z,1.70
2023-12-12T00:57:33.157Z,1.83
2023-12-12T01:00:06.773Z,1.50
2023-12-12T01:02:38.714Z,1.48
2023-12-12T01:05:11.576Z,1.63
2023-12-12T01:07:43.997Z,1.40
2023-12-12T01:10:16.713Z,1.30
2023-12-12T01:12:49.436Z,1.60
2023-12-12T01:15:21.416Z,2.30
2023-12-12T01:17:54.053Z,1.98
2023-12-12T01:20:26.044Z,1.60
2023-12-12T01:22:58.561Z,2.03
2023-12-12T01:25:31.270Z,1.92
2023-12-12T01:28:04.560Z,2.53
2023-12-12T01:30:39.434Z,2.08
2023-12-12T01:33:12.848Z,1.92
2023-12-12T01:35:45.391Z,2.28
2023-12-12T01:38:17.318Z,1.90
2023-12-12T01:40:50.238Z,2.20
2023-12-12T01:43:30.359Z,1.90
2023-12-12T01:46:16.421Z,1.80
2023-12-12T01:48:49.709Z,1.95
2023-12-12T01:51:22.955Z,2.25
2023-12-12T01:53:55.400Z,2.00
2023-12-12T01:56:32.081Z,2.58
2023-12-12T01:59:05.992Z,1.90
2023-12-12T02:01:39.780Z,1.83
2023-12-12T02:04:12.579Z,1.97
2023-12-12T02:06:48.403Z,2.15
2023-12-12T02:09:21.059Z,2.10
2023-12-12T02:11:53.856Z,1.92
2023-12-12T02:14:26.104Z,1.83
2023-12-12T02:16:58.508Z,1.87
2023-12-12T02:19:31.087Z,1.90
2023-12-12T02:22:03.677Z,1.70
2023-12-12T02:24:36.008Z,1.65
2023-12-12T02:27:09.012Z,1.80
2023-12-12T02:29:41.095Z,1.90
2023-12-12T02:32:13.658Z,1.95
2023-12-12T02:34:47.438Z,2.25
2023-12-12T02:37:19.900Z,1.52
2023-12-12T02:39:52.220Z,1.95
2023-12-12T02:42:24.138Z,1.57
2023-12-12T02:44:59.700Z,2.25
2023-12-12T02:47:31.907Z,1.70
2023-12-12T02:50:05.171Z,2.03
2023-12-12T02:52:37.536Z,1.90
2023-12-12T02:55:09.809Z,1.93
2023-12-12T02:57:42.382Z,1.75
2023-12-12T03:00:14.909Z,2.13
2023-12-12T03:02:47.824Z,1.92
2023-12-12T03:05:19.945Z,2.00
2023-12-12T03:07:52.510Z,2.50
2023-12-12T03:10:24.737Z,1.98
2023-12-12T03:12:56.749Z,2.40
2023-12-12T03:15:29.167Z,2.00
2023-12-12T03:18:01.595Z,1.95
2023-12-12T03:20:34.542Z,2.10
2023-12-12T03:23:06.905Z,2.25
2023-12-12T03:25:39.368Z,2.22
2023-12-12T03:28:13.625Z,2.10
2023-12-12T03:30:45.612Z,2.03
2023-12-12T03:33:18.231Z,1.93
2023-12-12T03:35:50.341Z,2.00
2023-12-12T03:38:25.858Z,2.33
2023-12-12T03:40:58.721Z,2.08
2023-12-12T03:43:30.709Z,1.80
2023-12-12T03:46:03.200Z,1.77
2023-12-12T03:48:35.705Z,1.85
2023-12-12T03:51:13.617Z,1.30
2023-12-12T03:53:45.896Z,1.80
2023-12-12T03:56:18.190Z,1.83
2023-12-12T03:58:50.197Z,1.80
2023-12-12T04:01:23.651Z,1.67
2023-12-12T04:03:56.607Z,1.90
2023-12-12T04:06:29.740Z,1.98
2023-12-12T04:09:01.661Z,2.20
2023-12-12T04:11:34.311Z,2.37
2023-12-12T04:14:06.301Z,1.80
2023-12-12T04:16:40.375Z,2.17
2023-12-12T04:19:12.896Z,1.73
2023-12-12T04:21:45.600Z,2.10
2023-12-12T04:24:17.554Z,1.90
2023-12-12T04:26:50.149Z,2.00
2023-12-12T04:29:22.095Z,2.40
2023-12-12T04:31:55.172Z,1.73
2023-12-12T04:34:27.114Z,2.10
2023-12-12T04:37:00.995Z,2.00
2023-12-12T04:39:32.928Z,2.15
2023-12-12T04:42:06.078Z,2.10
2023-12-12T04:44:38.144Z,2.42
2023-12-12T04:47:11.080Z,2.22
2023-12-12T04:49:43.549Z,2.23
2023-12-12T04:52:17.356Z,1.90
2023-12-12T04:54:49.372Z,2.00
2023-12-12T04:57:22.009Z,1.98
2023-12-12T04:59:53.927Z,2.00
2023-12-12T05:02:27.086Z,1.80
2023-12-12T05:04:59.853Z,1.88
2023-12-12T05:07:32.811Z,1.88
2023-12-12T05:10:06.788Z,1.92
2023-12-12T05:12:39.939Z,1.90
2023-12-12T05:15:11.924Z,1.80
2023-12-12T05:17:45.304Z,1.83
2023-12-12T05:20:17.556Z,1.83
2023-12-12T05:22:50.296Z,1.77
2023-12-12T05:25:26.118Z,2.15
2023-12-12T05:27:59.117Z,1.93
2023-12-12T05:30:31.116Z,2.03
2023-12-12T05:33:04.014Z,2.20
2023-12-12T05:35:36.226Z,2.35
2023-12-12T05:38:08.844Z,2.25
2023-12-12T05:40:40.978Z,1.90
2023-12-12T05:43:14.065Z,2.63
2023-12-12T05:45:46.613Z,2.70
2023-12-12T05:48:19.689Z,2.13
2023-12-12T05:50:51.715Z,2.03
2023-12-12T05:53:24.601Z,1.83
2023-12-12T05:55:57.526Z,2.35
2023-12-12T05:58:30.159Z,2.10
2023-12-12T06:01:03.964Z,2.10
2023-12-12T06:03:38.623Z,1.90
2023-12-12T06:06:11.535Z,1.77
2023-12-12T06:08:44.296Z,2.00
2023-12-12T06:11:17.292Z,1.95
2023-12-12T06:13:49.925Z,1.70
2023-12-12T06:16:22.042Z,2.03
2023-12-12T06:18:55.024Z,2.10
2023-12-12T06:21:27.463Z,2.05
2023-12-12T06:24:03.745Z,2.33
2023-12-12T06:26:35.922Z,2.30
2023-12-12T06:29:10.480Z,2.40
2023-12-12T06:31:42.764Z,2.20
2023-12-12T06:34:15.678Z,2.20
2023-12-12T06:36:47.777Z,2.35
2023-12-12T06:39:20.736Z,2.10
2023-12-12T06:41:52.708Z,2.33
2023-12-12T06:44:25.365Z,2.40
2023-12-12T06:46:57.855Z,2.40
2023-12-12T06:49:30.624Z,1.90
2023-12-12T06:52:04.616Z,2.08
2023-12-12T06:54:37.428Z,2.05
2023-12-12T06:57:09.511Z,3.40
2023-12-12T06:59:42.147Z,2.42
2023-12-12T07:02:14.215Z,1.77
2023-12-12T07:04:47.020Z,2.42
2023-12-12T07:07:19.014Z,1.92
2023-12-12T07:09:59.395Z,2.28
2023-12-12T07:12:33.496Z,2.50
2023-12-12T07:15:06.672Z,2.20
2023-12-12T07:17:39.526Z,2.47
2023-12-12T07:20:13.543Z,2.20
2023-12-12T07:22:45.686Z,2.35
2023-12-12T07:25:18.475Z,2.47
2023-12-12T07:27:51.602Z,2.53
2023-12-12T07:30:24.254Z,3.33
2023-12-12T07:32:57.351Z,2.97
2023-12-12T07:35:30.457Z,2.77
2023-12-12T07:38:02.476Z,3.10
2023-12-12T07:40:35.153Z,3.13
2023-12-12T07:43:07.207Z,2.75
2023-12-12T07:45:39.961Z,3.28
2023-12-12T07:48:12.028Z,3.03
2023-12-12T07:50:44.778Z,2.63
2023-12-12T07:53:17.173Z,2.97
2023-12-12T07:55:50.147Z,3.47
2023-12-12T07:58:22.256Z,3.65
2023-12-12T08:00:55.180Z,3.40
2023-12-12T08:03:27.574Z,3.63
2023-12-12T08:06:02.219Z,3.42
2023-12-12T08:08:34.341Z,3.28
2023-12-12T08:11:14.689Z,3.40
2023-12-12T08:13:47.164Z,3.08
2023-12-12T08:16:20.295Z,3.75
2023-12-12T08:18:52.528Z,3.45
2023-12-12T08:21:25.602Z,3.42
2023-12-12T08:24:08.817Z,3.10
2023-12-12T08:26:50.216Z,3.90
2023-12-12T08:29:23.657Z,3.42
2023-12-12T08:31:58.686Z,3.30
2023-12-12T08:34:34.677Z,3.45
2023-12-12T08:37:07.030Z,3.92
2023-12-12T08:39:40.082Z,3.40
2023-12-12T08:42:15.259Z,4.07
2023-12-12T08:44:47.229Z,3.85
2023-12-12T08:47:19.921Z,3.78
2023-12-12T08:49:52.386Z,3.83
2023-12-12T08:52:25.466Z,2.97
2023-12-12T08:54:57.825Z,3.03
2023-12-12T08:57:31.383Z,1.90
2023-12-12T09:00:05.041Z,2.08
2023-12-12T09:02:38.663Z,1.20
2023-12-12T09:05:11.122Z,1.25
2023-12-12T09:07:44.295Z,1.52
2023-12-12T09:10:16.334Z,1.27
2023-12-12T09:12:48.997Z,0.90
2023-12-12T09:15:21.039Z,1.50
2023-12-12T09:18:05.890Z,1.20
2023-12-12T09:20:46.040Z,1.38
2023-12-12T09:23:18.839Z,1.40
2023-12-12T09:25:51.018Z,1.00
2023-12-12T09:28:25.204Z,1.20
2023-12-12T09:30:57.472Z,1.23
2023-12-12T09:33:30.385Z,1.40
2023-12-12T09:36:02.892Z,1.58
2023-12-12T09:38:35.289Z,1.63
2023-12-12T09:41:10.399Z,1.48
2023-12-12T09:43:42.887Z,1.83
2023-12-12T09:46:16.485Z,1.70
2023-12-12T09:48:50.796Z,1.35
2023-12-12T09:51:25.520Z,1.35
2023-12-12T09:53:58.233Z,1.10
2023-12-12T09:56:30.710Z,1.35
2023-12-12T09:59:03.441Z,1.42
2023-12-12T10:01:36.687Z,1.67
2023-12-12T10:04:11.584Z,1.40
2023-12-12T10:06:44.762Z,1.60
2023-12-12T10:09:17.680Z,1.67
2023-12-12T10:11:49.757Z,1.80
2023-12-12T10:14:40.491Z,1.50
2023-12-12T10:17:12.907Z,2.30
2023-12-12T10:19:46.080Z,1.65
2023-12-12T10:22:18.806Z,1.88
2023-12-12T10:24:54.450Z,1.70
2023-12-12T10:27:26.393Z,1.60
2023-12-12T10:30:07.633Z,1.60
2023-12-12T10:32:40.128Z,1.20
2023-12-12T10:35:13.022Z,1.90
2023-12-12T10:37:45.134Z,1.60
2023-12-12T10:40:24.124Z,1.58
2023-12-12T10:42:56.833Z,1.38
2023-12-12T10:45:31.503Z,1.52
2023-12-12T10:48:06.478Z,1.77
2023-12-12T10:50:40.281Z,1.63
2023-12-12T10:53:13.243Z,2.00
2023-12-12T10:55:46.232Z,1.25
2023-12-12T10:58:19.010Z,1.75
2023-12-12T11:00:52.638Z,1.50
2023-12-12T11:03:25.010Z,1.35
2023-12-12T11:05:59.551Z,1.50
2023-12-12T11:08:32.025Z,1.45
2023-12-12T11:11:13.597Z,1.15
2023-12-12T11:13:46.254Z,1.45
2023-12-12T11:16:19.590Z,1.38
2023-12-12T11:18:54.111Z,1.60
2023-12-12T11:21:47.053Z,1.40
2023-12-12T11:24:21.110Z,1.58
2023-12-12T11:26:55.326Z,1.63
2023-12-12T11:29:27.908Z,1.40
2023-12-12T11:32:05.494Z,1.20
2023-12-12T11:34:39.815Z,1.30
2023-12-12T11:37:12.517Z,1.15
2023-12-12T11:39:50.789Z,1.40
2023-12-12T11:42:27.956Z,1.20
2023-12-12T11:45:00.206Z,1.20
2023-12-12T11:47:36.245Z,1.40
2023-12-12T11:50:16.517Z,1.20
2023-12-12T11:52:49.679Z,1.30
2023-12-12T11:55:30.088Z,1.60
2023-12-12T11:58:08.518Z,1.48
2023-12-12T12:00:45.121Z,1.38
2023-12-12T12:03:23.108Z,1.23
2023-12-12T12:05:55.645Z,1.30
2023-12-12T12:08:28.404Z,1.57
2023-12-12T12:11:00.807Z,1.40
2023-12-12T12:13:44.323Z,1.30
2023-12-12T12:16:16.908Z,1.65
2023-12-12T12:18:50.177Z,1.45
2023-12-12T12:21:26.807Z,1.33
2023-12-12T12:23:59.444Z,1.35
2023-12-12T12:26:35.939Z,1.38
2023-12-12T12:29:11.801Z,1.45
2023-12-12T12:31:45.480Z,1.88
2023-12-12T12:34:23.231Z,1.52
2023-12-12T12:36:59.968Z,1.45
2023-12-12T12:39:45.857Z,1.30
2023-12-12T12:42:18.579Z,1.40
2023-12-12T12:44:55.217Z,1.83
2023-12-12T12:47:28.120Z,1.40
2023-12-12T12:50:00.915Z,1.20
2023-12-12T12:52:34.035Z,1.30
2023-12-12T12:55:07.409Z,1.30
2023-12-12T12:57:41.049Z,1.55
2023-12-12T13:00:14.380Z,1.67
2023-12-12T13:02:47.042Z,1.60
2023-12-12T13:05:23.122Z,1.67
2023-12-12T13:07:55.829Z,1.70
2023-12-12T13:10:39.572Z,1.88
2023-12-12T13:13:21.642Z,1.77
2023-12-12T13:15:54.246Z,1.42
2023-12-12T13:18:27.100Z,1.55
2023-12-12T13:20:59.120Z,1.95
2023-12-12T13:23:32.047Z,1.80
2023-12-12T13:26:06.403Z,1.60
2023-12-12T13:28:40.528Z,1.90
2023-12-12T13:31:13.749Z,1.75
2023-12-12T13:33:46.952Z,1.80
2023-12-12T13:36:20.520Z,1.52
2023-12-12T13:38:55.826Z,1.67
2023-12-12T13:41:27.858Z,1.42
2023-12-12T13:44:00.644Z,1.58
2023-12-12T13:46:33.090Z,1.40
2023-12-12T13:49:06.474Z,1.60
2023-12-12T13:51:44.432Z,1.73
2023-12-12T13:54:21.920Z,2.35
2023-12-12T13:56:54.701Z,1.45
2023-12-12T13:59:27.120Z,1.60
2023-12-12T14:01:59.961Z,2.63
2023-12-12T14:04:32.702Z,3.58
2023-12-12T14:07:05.617Z,2.70
2023-12-12T14:09:37.731Z,2.88
2023-12-12T14:12:12.159Z,3.55
2023-12-12T14:14:44.319Z,13.35
2023-12-12T14:17:17.198Z,11.32
2023-12-12T14:19:49.844Z,4.22
2023-12-12T14:22:23.418Z,3.30
2023-12-12T14:24:55.406Z,5.72
2023-12-12T14:27:28.320Z,2.67
2023-12-12T14:30:00.899Z,2.50
2023-12-12T14:32:34.030Z,2.58
2023-12-12T14:35:08.357Z,2.13
2023-12-12T14:37:42.102Z,2.28
2023-12-12T14:40:15.825Z,2.50
2023-12-12T14:42:51.526Z,2.60
2023-12-12T14:45:24.091Z,2.05
2023-12-12T14:48:00.507Z,2.00
2023-12-12T14:50:32.598Z,1.90
2023-12-12T14:53:11.140Z,2.08
2023-12-12T14:55:43.537Z,1.70
2023-12-12T14:58:16.996Z,2.28
2023-12-12T15:00:50.011Z,1.80
2023-12-12T15:03:24.687Z,2.10
2023-12-12T15:05:57.327Z,1.77
2023-12-12T15:08:30.378Z,2.17
2023-12-12T15:11:02.371Z,1.67
2023-12-12T15:13:35.145Z,1.70
2023-12-12T15:16:10.537Z,2.03
2023-12-12T15:18:43.732Z,1.70
2023-12-12T15:21:16.111Z,2.30
2023-12-12T15:23:48.874Z,1.83
2023-12-12T15:26:21.484Z,2.03
2023-12-12T15:28:57.151Z,1.67
2023-12-12T15:31:32.475Z,1.83
2023-12-12T15:34:04.786Z,1.88
2023-12-12T15:36:38.181Z,2.42
2023-12-12T15:39:10.190Z,2.30
2023-12-12T15:41:43.002Z,2.00
2023-12-12T15:44:15.574Z,1.95
2023-12-12T15:46:48.649Z,2.08
2023-12-12T15:49:20.717Z,1.80
2023-12-12T15:51:53.548Z,2.70
2023-12-12T15:54:26.567Z,2.20
2023-12-12T15:56:59.372Z,2.38
2023-12-12T15:59:35.867Z,2.10
2023-12-12T16:02:09.181Z,2.20
2023-12-12T16:04:43.187Z,2.28
2023-12-12T16:07:16.130Z,2.25
2023-12-12T16:09:48.612Z,2.35
2023-12-12T16:12:24.924Z,2.08
2023-12-12T16:14:57.308Z,3.10
2023-12-12T16:17:30.431Z,2.10
2023-12-12T16:20:06.230Z,2.38
2023-12-12T16:22:39.643Z,2.28
2023-12-12T16:25:12.670Z,2.20
2023-12-12T16:27:50.765Z,2.40
2023-12-12T16:30:26.934Z,1.88
2023-12-12T16:33:01.573Z,2.13
2023-12-12T16:35:34.005Z,2.35
2023-12-12T16:38:06.591Z,2.35
2023-12-12T16:40:41.128Z,2.20
2023-12-12T16:43:17.666Z,2.05
2023-12-12T16:45:50.086Z,2.45
2023-12-12T16:48:22.306Z,2.25
2023-12-12T16:50:56.386Z,2.40
2023-12-12T16:53:29.461Z,2.20
2023-12-12T16:56:02.013Z,2.50
2023-12-12T16:58:38.053Z,2.03
2023-12-12T17:01:11.481Z,2.50
2023-12-12T17:03:44.929Z,2.00
2023-12-12T17:06:17.602Z,2.40
2023-12-12T17:08:52.458Z,2.53
2023-12-12T17:11:25.506Z,2.50
2023-12-12T17:13:58.374Z,2.55
2023-12-12T17:16:33.220Z,2.42
2023-12-12T17:19:06.562Z,2.20
2023-12-12T17:21:38.774Z,2.30
2023-12-12T17:27:08.199Z,2.00
2023-12-12T17:29:41.290Z,2.38
2023-12-12T17:32:14.535Z,2.20
2023-12-12T17:34:50.666Z,2.10
2023-12-12T17:37:24.441Z,2.00
2023-12-12T17:39:57.598Z,1.90
2023-12-12T17:42:30.758Z,2.17
2023-12-12T17:45:03.494Z,2.00
2023-12-12T17:47:38.959Z,1.75
2023-12-12T17:50:15.799Z,2.08
2023-12-12T17:52:47.971Z,2.13
2023-12-12T17:55:20.780Z,2.42
2023-12-12T17:57:52.770Z,2.35
2023-12-12T18:00:25.101Z,2.25
2023-12-12T18:02:57.471Z,2.03
2023-12-12T18:05:34.884Z,2.25
2023-12-12T18:08:06.918Z,2.30
2023-12-12T18:10:39.366Z,2.33
2023-12-12T18:13:11.401Z,2.10
2023-12-12T18:15:44.003Z,2.00
2023-12-12T18:18:16.620Z,2.00
2023-12-12T18:20:51.991Z,2.22
2023-12-12T18:23:25.799Z,2.10
2023-12-12T18:25:59.252Z,2.13
2023-12-12T18:28:31.719Z,1.83
2023-12-12T18:31:05.773Z,2.40
2023-12-12T18:33:37.973Z,1.70
2023-12-12T18:36:11.861Z,1.80
2023-12-12T18:38:43.888Z,1.67
2023-12-12T18:41:18.682Z,1.83
2023-12-12T18:43:50.799Z,1.60
2023-12-12T18:46:23.521Z,1.85
2023-12-12T18:48:56.434Z,1.58
2023-12-12T18:51:29.090Z,1.77
2023-12-12T18:54:01.132Z,1.50
2023-12-12T18:56:34.514Z,1.70
2023-12-12T18:59:06.656Z,1.52
2023-12-12T19:01:39.395Z,1.45
2023-12-12T19:04:11.489Z,1.20
2023-12-12T19:06:44.312Z,1.20
2023-12-12T19:09:16.482Z,1.48
2023-12-12T19:11:49.204Z,1.50
2023-12-12T19:14:21.707Z,1.92
2023-12-12T19:16:54.507Z,1.33
2023-12-12T19:19:26.605Z,1.50
2023-12-12T19:21:59.292Z,1.77
2023-12-12T19:24:31.284Z,1.30
2023-12-12T19:27:04.522Z,1.40
2023-12-12T19:29:37.996Z,1.13
2023-12-12T19:32:11.001Z,1.83
2023-12-12T19:34:42.980Z,1.30
2023-12-12T19:37:16.161Z,1.75
2023-12-12T19:39:48.491Z,1.30
2023-12-12T19:42:21.501Z,1.33
2023-12-12T19:44:54.004Z,1.40
2023-12-12T19:47:27.349Z,1.40
2023-12-12T19:50:02.267Z,1.90
2023-12-12T19:52:37.394Z,1.73
2023-12-12T19:55:16.119Z,1.30
2023-12-12T19:57:50.782Z,1.55
2023-12-12T20:00:24.874Z,1.50
2023-12-12T20:02:57.860Z,1.50
2023-12-12T20:05:32.580Z,1.67
2023-12-12T20:08:05.753Z,1.40
2023-12-12T20:10:39.957Z,1.55
2023-12-12T20:13:13.520Z,1.60
2023-12-12T20:15:46.767Z,1.23
2023-12-12T20:18:22.608Z,1.33
2023-12-12T20:20:55.054Z,1.88
2023-12-12T20:23:27.764Z,1.65
2023-12-12T20:26:02.063Z,1.80
2023-12-12T20:28:34.260Z,1.40
2023-12-12T20:31:06.378Z,1.48
2023-12-12T20:33:39.307Z,1.42
2023-12-12T20:36:14.359Z,1.10
2023-12-12T20:38:47.521Z,1.60
2023-12-12T20:41:19.607Z,1.67
2023-12-12T20:43:52.312Z,1.40
2023-12-12T20:46:24.756Z,1.13
2023-12-12T20:48:57.929Z,1.42
2023-12-12T20:51:32.564Z,1.40
2023-12-12T20:54:07.888Z,1.33
2023-12-12T20:56:42.906Z,1.73
2023-12-12T20:59:15.520Z,1.50
2023-12-12T21:01:48.875Z,1.38
2023-12-12T21:04:21.756Z,1.60
2023-12-12T21:06:54.236Z,1.60
2023-12-12T21:09:27.162Z,1.45
2023-12-12T21:11:59.616Z,1.48
2023-12-12T21:14:32.389Z,1.70
2023-12-12T21:17:05.049Z,1.70
2023-12-12T21:19:38.252Z,1.75
2023-12-12T21:22:10.361Z,1.50
2023-12-12T21:24:44.151Z,2.05
2023-12-12T21:27:16.091Z,1.70
2023-12-12T21:29:49.097Z,1.75
2023-12-12T21:32:21.887Z,1.48
2023-12-12T21:34:54.868Z,1.77
2023-12-12T21:37:26.901Z,1.70
2023-12-12T21:40:02.987Z,1.92
2023-12-12T21:42:35.061Z,1.50
2023-12-12T21:45:08.004Z,1.50
2023-12-12T21:47:39.975Z,1.13
2023-12-12T21:50:12.802Z,1.20
2023-12-12T21:52:45.428Z,1.40
2023-12-12T21:55:18.225Z,4.20
2023-12-12T21:57:50.643Z,2.05
2023-12-12T22:00:23.345Z,1.70
2023-12-12T22:02:55.294Z,1.45
2023-12-12T22:05:28.338Z,1.70
2023-12-12T22:08:00.311Z,1.73
2023-12-12T22:10:32.624Z,1.50
2023-12-12T22:13:04.627Z,1.40
2023-12-12T22:15:37.930Z,1.75
2023-12-12T22:18:09.964Z,1.45
2023-12-12T22:20:43.189Z,1.50
2023-12-12T22:23:15.481Z,1.50
2023-12-12T22:25:48.476Z,1.38
2023-12-12T22:28:22.021Z,1.73
2023-12-12T22:30:54.881Z,1.50
2023-12-12T22:33:26.941Z,1.75
2023-12-12T22:36:00.132Z,1.60
2023-12-12T22:38:32.481Z,1.30
2023-12-12T22:41:05.813Z,1.90
2023-12-12T22:43:41.479Z,1.75
2023-12-12T22:46:14.209Z,1.53
2023-12-12T22:48:47.283Z,1.35
2023-12-12T22:51:20.447Z,1.33
2023-12-12T22:53:52.524Z,1.30
2023-12-12T22:56:25.341Z,1.30
2023-12-12T22:59:00.130Z,1.38
2023-12-12T23:01:33.260Z,1.00
2023-12-12T23:04:05.555Z,1.05
2023-12-12T23:06:38.333Z,1.70
2023-12-12T23:09:11.646Z,1.40
2023-12-12T23:11:47.182Z,1.70
2023-12-12T23:14:21.692Z,1.40
2023-12-12T23:16:54.410Z,1.45
2023-12-12T23:19:26.467Z,1.40
2023-12-12T23:21:59.124Z,1.30
2023-12-12T23:24:32.316Z,1.40
2023-12-12T23:27:05.146Z,1.65
2023-12-12T23:29:37.103Z,1.30
2023-12-12T23:32:09.815Z,1.30
2023-12-12T23:34:47.648Z,1.30
2023-12-12T23:37:21.267Z,1.40
2023-12-12T23:39:54.042Z,1.50
2023-12-12T23:42:26.757Z,1.48
2023-12-12T23:45:04.443Z,1.40
2023-12-12T23:47:37.406Z,1.83
2023-12-12T23:50:10.090Z,1.27
2023-12-12T23:52:42.795Z,1.60
2023-12-12T23:55:15.993Z,1.35
2023-12-12T23:57:48.631Z,1.70
